Qashlu, Yemen
Current Conditions -  °F | °C
As of 11:00 AM on Sunday 21 Dec 2014 (Local Time) from OYSQ Reporting Station
Scattered Clouds Scattered Clouds  
Wind Chill: 20°   Ceiling: Unl
Heat Index: NA   Visibility: 6mi
Dew Point: 21°   Wind: 21mph
Humidity: NA   Direction: 60°ENE
Pressure: 29.94"   Gusts: NA
Location:  12.61°N, 53.86°E
Report Text: OYSQ 210800Z 06018KT 9999 SCT018 20/21 Q1014
Loading
Personal Weather Stations






























Interactive Weather Map New forecast layout! Learn more

10-Day Weather Forecast

Advertisements
Track Severe Weather on mobile